Time;durP1;ratioP1;P1;durP2;ratioP2;P2;SDS_P1;SDS_P2;PMS_P1;PMS_P2;Temp;Humidity;BMP_temperature;BMP_pressure;BME280_temperature;BME280_humidity;BME280_pressure;Samples;Min_cycle;Max_cycle;Signal;HPM_P1;HPM_P2
2024/01/24 00:01:55;;;;;;;1.95;0.80;;;9.50;80.10;;;;;;5091468;28;20615;-74
2024/01/24 00:04:23;;;;;;;2.10;0.80;;;9.70;80.30;;;;;;5091190;28;20189;-74
2024/01/24 00:06:50;;;;;;;1.90;0.70;;;9.80;80.50;;;;;;5087398;28;20882;-74
2024/01/24 00:09:17;;;;;;;2.08;1.02;;;10.00;79.60;;;;;;5070850;28;20552;-74
2024/01/24 00:11:44;;;;;;;1.90;0.80;;;10.10;79.50;;;;;;5077705;28;20186;-74
2024/01/24 00:14:11;;;;;;;1.80;0.80;;;10.20;80.60;;;;;;5077465;28;20178;-74
2024/01/24 00:16:39;;;;;;;2.00;1.02;;;10.30;79.50;;;;;;5092794;28;20745;-74
2024/01/24 00:19:06;;;;;;;1.80;0.75;;;10.40;78.80;;;;;;5093077;28;20280;-74
2024/01/24 00:21:33;;;;;;;2.15;1.00;;;10.50;78.40;;;;;;5092979;28;20291;-74
2024/01/24 00:24:00;;;;;;;1.90;0.90;;;10.50;78.00;;;;;;5092859;28;20279;-74
2024/01/24 00:26:26;;;;;;;2.20;0.80;;;10.60;77.90;;;;;;5090629;28;20220;-75
2024/01/24 00:28:53;;;;;;;2.03;0.80;;;10.70;77.50;;;;;;5092896;28;20193;-74
2024/01/24 00:31:20;;;;;;;1.70;0.70;;;10.70;77.50;;;;;;5093007;28;20522;-76
2024/01/24 00:33:51;;;;;;;2.07;0.97;;;10.80;77.30;;;;;;5082959;28;20693;-74
2024/01/24 00:36:18;;;;;;;2.63;1.13;;;10.90;77.40;;;;;;5072244;28;20451;-74
2024/01/24 00:38:45;;;;;;;1.80;0.70;;;11.00;76.90;;;;;;5072597;28;20515;-75
2024/01/24 00:41:12;;;;;;;2.27;0.70;;;11.10;76.40;;;;;;5072459;28;20472;-76
2024/01/24 00:43:39;;;;;;;1.83;0.70;;;11.20;76.10;;;;;;5078559;28;20510;-75
2024/01/24 00:46:06;;;;;;;2.20;0.73;;;11.20;75.90;;;;;;5093004;28;20830;-75
2024/01/24 00:48:33;;;;;;;6.30;0.90;;;11.30;75.50;;;;;;5093630;28;20529;-75
2024/01/24 00:51:03;;;;;;;3.77;1.03;;;11.30;75.40;;;;;;5096692;28;20267;-75
2024/01/24 00:53:30;;;;;;;2.10;0.93;;;11.40;75.10;;;;;;5075687;28;20467;-75
2024/01/24 00:55:57;;;;;;;2.10;0.80;;;11.40;74.70;;;;;;5076214;28;20798;-75
2024/01/24 00:58:24;;;;;;;1.80;0.80;;;11.50;74.70;;;;;;5075851;28;20519;-76
2024/01/24 01:00:51;;;;;;;3.40;1.10;;;11.50;74.50;;;;;;5076274;28;20514;-75
2024/01/24 01:03:18;;;;;;;2.17;0.70;;;11.60;74.70;;;;;;5079486;28;20813;-75
2024/01/24 01:05:45;;;;;;;2.97;1.10;;;11.60;74.70;;;;;;5096816;28;21012;-74
2024/01/24 01:08:14;;;;;;;2.80;1.00;;;11.70;74.90;;;;;;5096832;28;20832;-75
2024/01/24 01:10:41;;;;;;;1.80;0.77;;;11.80;74.50;;;;;;5086126;28;20754;-75
2024/01/24 01:13:08;;;;;;;5.10;1.20;;;11.80;74.30;;;;;;5077386;28;20478;-76
2024/01/24 01:15:35;;;;;;;2.10;0.90;;;11.90;74.30;;;;;;5096231;28;20478;-75
2024/01/24 01:18:02;;;;;;;1.80;0.93;;;11.90;74.10;;;;;;5096666;28;20510;-75
2024/01/24 01:20:29;;;;;;;1.67;0.60;;;12.00;74.10;;;;;;5096425;28;20470;-75
2024/01/24 01:22:56;;;;;;;3.33;0.90;;;12.10;74.00;;;;;;5096528;28;20473;-75
2024/01/24 01:25:24;;;;;;;2.03;0.97;;;12.10;73.90;;;;;;5096236;28;20496;-75
2024/01/24 01:27:51;;;;;;;2.43;0.83;;;12.20;73.80;;;;;;5096500;28;20455;-75
2024/01/24 01:30:18;;;;;;;2.27;0.90;;;12.20;73.70;;;;;;5096036;28;20509;-75
2024/01/24 01:32:45;;;;;;;2.57;0.87;;;12.20;73.80;;;;;;5096044;28;20482;-75
2024/01/24 01:35:13;;;;;;;3.00;0.83;;;12.20;73.70;;;;;;5077126;28;20511;-75
2024/01/24 01:37:40;;;;;;;2.70;1.00;;;12.30;73.80;;;;;;5075872;28;20440;-75
2024/01/24 01:40:08;;;;;;;3.70;0.87;;;12.30;73.70;;;;;;5075948;28;20454;-73
2024/01/24 01:42:36;;;;;;;2.03;0.80;;;12.30;73.50;;;;;;5075839;28;20478;-76
2024/01/24 01:45:04;;;;;;;1.87;0.73;;;12.40;73.60;;;;;;5092350;28;20502;-75
2024/01/24 01:47:31;;;;;;;1.90;0.80;;;12.40;73.60;;;;;;5096306;28;20459;-74
2024/01/24 01:49:58;;;;;;;2.80;0.90;;;12.50;73.60;;;;;;5095834;28;20463;-76
2024/01/24 01:52:25;;;;;;;2.47;0.80;;;12.50;73.40;;;;;;5086214;28;20808;-75
2024/01/24 01:54:52;;;;;;;2.83;0.90;;;12.60;73.60;;;;;;5075362;28;20522;-75
2024/01/24 01:57:19;;;;;;;2.10;0.97;;;12.60;73.30;;;;;;5075610;28;20443;-76
2024/01/24 01:59:48;;;;;;;1.90;0.77;;;12.70;73.30;;;;;;5075303;28;20471;-75
2024/01/24 02:02:16;;;;;;;2.33;0.90;;;12.70;73.20;;;;;;5075163;28;20547;-76
2024/01/24 02:04:43;;;;;;;2.23;0.90;;;12.80;73.30;;;;;;5088016;28;20514;-75
2024/01/24 02:07:10;;;;;;;2.10;1.00;;;12.80;72.90;;;;;;5096015;28;20506;-76
2024/01/24 02:09:37;;;;;;;2.57;1.10;;;12.80;72.80;;;;;;5095416;28;20522;-75
2024/01/24 02:12:04;;;;;;;2.47;0.90;;;12.90;72.70;;;;;;5090893;28;20504;-75
2024/01/24 02:14:31;;;;;;;3.50;1.03;;;12.90;71.70;;;;;;5085987;28;20973;-76
2024/01/24 02:16:59;;;;;;;1.90;0.73;;;12.80;72.20;;;;;;5095420;28;20562;-75
2024/01/24 02:19:26;;;;;;;3.70;1.57;;;12.70;72.50;;;;;;5075519;28;20511;-75
2024/01/24 02:21:53;;;;;;;4.83;2.27;;;12.70;72.20;;;;;;5075164;28;20515;-75
2024/01/24 02:24:22;;;;;;;3.03;1.60;;;12.70;72.00;;;;;;5074462;28;20429;-76
2024/01/24 02:26:50;;;;;;;3.07;1.67;;;12.70;71.80;;;;;;5074816;28;20914;-75
2024/01/24 02:29:17;;;;;;;2.23;1.10;;;12.50;72.10;;;;;;5075161;28;20524;-75
2024/01/24 02:31:44;;;;;;;2.00;0.90;;;12.50;72.10;;;;;;5075299;28;20532;-75
2024/01/24 02:34:11;;;;;;;1.90;0.80;;;12.40;72.20;;;;;;5074510;28;20485;-74
2024/01/24 02:36:38;;;;;;;2.00;1.10;;;12.40;73.80;;;;;;5075687;28;20514;-76
2024/01/24 02:39:05;;;;;;;1.90;0.73;;;12.40;73.20;;;;;;5074294;28;20511;-75
2024/01/24 02:41:33;;;;;;;2.43;1.00;;;12.40;72.80;;;;;;5089892;28;20428;-75
2024/01/24 02:44:00;;;;;;;1.70;0.70;;;12.30;73.40;;;;;;5094682;28;20471;-75
2024/01/24 02:46:27;;;;;;;2.30;0.83;;;12.20;74.00;;;;;;5094957;28;20493;-75
2024/01/24 02:48:54;;;;;;;2.50;1.10;;;12.20;74.50;;;;;;5094999;28;20467;-75
2024/01/24 02:51:25;;;;;;;2.10;0.90;;;12.20;74.70;;;;;;5080241;28;20515;-75
2024/01/24 02:53:52;;;;;;;2.33;0.90;;;12.20;76.20;;;;;;5074359;28;20518;-75
2024/01/24 02:56:19;;;;;;;2.17;1.17;;;12.30;76.90;;;;;;5074440;28;20451;-75
2024/01/24 02:58:47;;;;;;;2.00;0.90;;;12.40;77.00;;;;;;5074079;28;20511;-76
2024/01/24 03:01:15;;;;;;;2.40;1.00;;;12.50;77.20;;;;;;5086417;28;20506;-76
2024/01/24 03:03:43;;;;;;;1.90;0.80;;;12.60;77.20;;;;;;5094258;28;20947;-76
2024/01/24 03:06:10;;;;;;;2.43;1.23;;;12.70;76.90;;;;;;5094506;28;20442;-76
2024/01/24 03:08:48;;;;;;;2.57;1.10;;;12.70;76.70;;;;;;5094532;28;20526;-75
2024/01/24 03:11:15;;;;;;;3.30;1.10;;;12.80;76.50;;;;;;5081123;28;20458;-76
2024/01/24 03:13:42;;;;;;;2.80;0.80;;;12.90;76.20;;;;;;5073845;28;20436;-76
2024/01/24 03:16:10;;;;;;;2.27;1.10;;;13.10;76.00;;;;;;5074055;28;20503;-75
2024/01/24 03:18:38;;;;;;;1.90;0.70;;;13.20;75.40;;;;;;5074127;28;20420;-76
2024/01/24 03:21:07;;;;;;;2.10;0.80;;;13.20;75.20;;;;;;5073854;28;20459;-75
2024/01/24 03:23:34;;;;;;;2.10;1.20;;;13.30;74.90;;;;;;5074062;28;20464;-76
2024/01/24 03:26:01;;;;;;;2.07;0.87;;;13.30;74.50;;;;;;5073749;28;20945;-76
2024/01/24 03:28:28;;;;;;;3.50;0.70;;;13.40;74.00;;;;;;5073743;28;20818;-76
2024/01/24 03:30:55;;;;;;;1.90;0.80;;;13.40;73.80;;;;;;5073265;28;20463;-75
2024/01/24 03:33:23;;;;;;;2.87;0.90;;;13.40;73.60;;;;;;5073914;28;20432;-76
2024/01/24 03:35:50;;;;;;;2.00;0.77;;;13.50;73.40;;;;;;5073991;28;20526;-76
2024/01/24 03:38:17;;;;;;;3.27;1.13;;;13.50;72.90;;;;;;5081507;28;20519;-76
2024/01/24 03:40:44;;;;;;;2.27;0.93;;;13.60;72.90;;;;;;5094042;28;20519;-76
2024/01/24 03:43:12;;;;;;;2.00;0.87;;;13.60;72.60;;;;;;5093779;28;21051;-76
2024/01/24 03:45:39;;;;;;;2.40;1.33;;;13.60;72.40;;;;;;5093968;28;20435;-76
2024/01/24 03:48:07;;;;;;;2.00;0.90;;;13.70;72.20;;;;;;5093135;28;20427;-76
2024/01/24 03:50:35;;;;;;;2.00;0.80;;;13.70;72.00;;;;;;5093939;28;20517;-76
2024/01/24 03:53:02;;;;;;;2.97;1.40;;;13.70;71.80;;;;;;5093924;28;20470;-76
2024/01/24 03:55:30;;;;;;;2.03;0.90;;;13.80;71.50;;;;;;5093895;28;20465;-76
2024/01/24 03:57:57;;;;;;;4.30;1.10;;;13.70;71.40;;;;;;5087297;28;20432;-76
2024/01/24 04:00:24;;;;;;;3.13;1.27;;;13.80;71.20;;;;;;5073244;28;20434;-76
2024/01/24 04:02:51;;;;;;;1.93;0.90;;;13.80;71.20;;;;;;5073140;28;20559;-76
2024/01/24 04:05:18;;;;;;;2.20;0.83;;;13.80;71.00;;;;;;5073463;28;20511;-76
2024/01/24 04:07:47;;;;;;;2.20;0.90;;;13.80;70.70;;;;;;5076229;28;20823;-76
2024/01/24 04:10:15;;;;;;;1.90;0.70;;;13.90;70.20;;;;;;5093852;28;20446;-76
2024/01/24 04:12:42;;;;;;;1.90;0.70;;;13.90;70.10;;;;;;5087611;28;20432;-76
2024/01/24 04:15:10;;;;;;;4.33;1.47;;;13.90;69.90;;;;;;5072458;28;20507;-76
2024/01/24 04:17:37;;;;;;;2.00;1.00;;;13.90;69.70;;;;;;5074397;28;20546;-76
2024/01/24 04:20:04;;;;;;;2.10;0.90;;;13.90;69.70;;;;;;5093696;28;20826;-76
2024/01/24 04:22:31;;;;;;;2.27;0.80;;;13.90;69.50;;;;;;5094652;28;20480;-76
2024/01/24 04:25:00;;;;;;;1.90;0.80;;;14.00;68.90;;;;;;5097506;28;20510;-76
2024/01/24 04:27:27;;;;;;;2.23;0.77;;;14.00;69.00;;;;;;5096528;28;20428;-76
2024/01/24 04:29:54;;;;;;;2.70;1.03;;;14.00;68.90;;;;;;5097587;28;20776;-76
2024/01/24 04:32:21;;;;;;;3.17;0.90;;;14.00;68.70;;;;;;5095159;28;20996;-76
2024/01/24 04:34:48;;;;;;;5.07;1.20;;;14.10;68.60;;;;;;5097311;28;20469;-76
2024/01/24 04:37:15;;;;;;;2.30;0.73;;;14.10;68.40;;;;;;5097252;28;20443;-76
2024/01/24 04:39:42;;;;;;;2.00;0.77;;;14.10;68.40;;;;;;5097566;28;20517;-76
2024/01/24 04:42:11;;;;;;;2.07;0.67;;;14.20;68.40;;;;;;5086865;28;20493;-76
2024/01/24 04:44:38;;;;;;;2.00;0.70;;;14.20;68.30;;;;;;5076849;28;20842;-75
2024/01/24 04:47:05;;;;;;;1.80;0.70;;;14.20;68.40;;;;;;5077284;28;20506;-75
2024/01/24 04:49:32;;;;;;;4.93;1.07;;;14.20;68.40;;;;;;5076961;28;20961;-76
2024/01/24 04:51:58;;;;;;;1.90;0.90;;;14.20;68.60;;;;;;5083691;28;20511;-76
2024/01/24 04:54:25;;;;;;;1.80;0.60;;;14.20;68.40;;;;;;5097125;28;20523;-76
2024/01/24 04:56:52;;;;;;;2.63;0.90;;;14.20;68.50;;;;;;5097268;28;20510;-76
2024/01/24 04:59:21;;;;;;;2.30;0.77;;;14.20;68.40;;;;;;5078496;28;20456;-75
2024/01/24 05:01:48;;;;;;;2.07;1.00;;;14.20;68.50;;;;;;5076647;28;20460;-76
2024/01/24 05:04:15;;;;;;;2.40;0.90;;;14.20;68.70;;;;;;5085824;28;20558;-76
2024/01/24 05:06:42;;;;;;;2.20;0.90;;;14.20;68.70;;;;;;5090730;28;20510;-76
2024/01/24 05:09:09;;;;;;;2.67;0.90;;;14.20;68.70;;;;;;5096868;28;20473;-76
2024/01/24 05:11:36;;;;;;;1.90;0.70;;;14.20;69.00;;;;;;5096820;28;20435;-76
2024/01/24 05:14:02;;;;;;;2.20;0.90;;;14.10;68.90;;;;;;5089174;28;20503;-76
2024/01/24 05:16:31;;;;;;;2.13;0.70;;;14.20;69.00;;;;;;5071007;28;20492;-76
2024/01/24 05:18:58;;;;;;;2.73;0.60;;;14.20;68.80;;;;;;5073131;28;20432;-76
2024/01/24 05:21:25;;;;;;;2.00;0.80;;;14.20;69.40;;;;;;5076346;28;20527;-76
2024/01/24 05:23:53;;;;;;;1.90;0.70;;;14.20;68.80;;;;;;5076331;28;20510;-76
2024/01/24 05:26:20;;;;;;;2.00;0.90;;;14.20;68.80;;;;;;5077970;28;20534;-76
2024/01/24 05:28:47;;;;;;;2.07;0.73;;;14.20;68.80;;;;;;5094064;28;20462;-75
2024/01/24 05:31:14;;;;;;;2.00;0.90;;;14.20;68.70;;;;;;5076122;28;20512;-75
2024/01/24 05:33:42;;;;;;;2.40;0.70;;;14.20;68.60;;;;;;5075645;28;20515;-75
2024/01/24 05:36:09;;;;;;;1.80;0.70;;;14.20;68.40;;;;;;5076072;28;20515;-75
2024/01/24 05:38:36;;;;;;;3.60;0.97;;;14.20;68.40;;;;;;5076154;28;20808;-75
2024/01/24 05:41:04;;;;;;;1.90;0.67;;;14.20;68.10;;;;;;5095407;28;20482;-75
2024/01/24 05:43:31;;;;;;;1.83;0.70;;;14.30;68.10;;;;;;5078822;28;20495;-76
2024/01/24 05:45:58;;;;;;;1.80;0.70;;;14.30;68.20;;;;;;5074821;28;20463;-76
2024/01/24 05:48:25;;;;;;;1.93;0.80;;;14.30;67.90;;;;;;5075975;28;20482;-76
2024/01/24 05:50:53;;;;;;;1.80;0.67;;;14.20;67.90;;;;;;5094397;28;20423;-75
2024/01/24 05:53:20;;;;;;;2.53;0.83;;;14.20;68.20;;;;;;5094601;28;20438;-76
2024/01/24 05:55:47;;;;;;;2.40;0.90;;;14.30;68.10;;;;;;5075400;28;20517;-76
2024/01/24 05:58:14;;;;;;;4.00;0.83;;;14.30;67.90;;;;;;5075647;28;20450;-75
2024/01/24 06:00:41;;;;;;;1.80;0.80;;;14.30;67.90;;;;;;5075335;28;20516;-76
2024/01/24 06:03:08;;;;;;;1.83;0.80;;;14.30;67.80;;;;;;5075147;28;20922;-76
2024/01/24 06:05:34;;;;;;;2.00;0.90;;;14.30;67.80;;;;;;5075146;28;20441;-76
2024/01/24 06:08:05;;;;;;;2.07;0.60;;;14.40;67.80;;;;;;5066796;28;20453;-75
2024/01/24 06:10:32;;;;;;;2.70;1.83;;;14.40;68.60;;;;;;5089086;28;20464;-75
2024/01/24 06:12:59;;;;;;;2.00;0.87;;;14.40;67.80;;;;;;5095122;28;20439;-75
2024/01/24 06:15:27;;;;;;;1.93;0.70;;;14.40;67.80;;;;;;5095020;28;20485;-74
2024/01/24 06:17:54;;;;;;;2.20;0.90;;;14.40;67.80;;;;;;5094811;28;20462;-75
2024/01/24 06:20:21;;;;;;;1.73;0.60;;;14.40;67.60;;;;;;5093630;28;20471;-76
2024/01/24 06:22:48;;;;;;;3.07;1.03;;;14.40;67.80;;;;;;5095080;28;20508;-75
2024/01/24 06:25:17;;;;;;;3.50;0.87;;;14.40;67.50;;;;;;5084257;28;21050;-74
2024/01/24 06:27:45;;;;;;;1.97;0.80;;;14.40;67.70;;;;;;5075376;28;20432;-75
2024/01/24 06:30:13;;;;;;;3.40;0.80;;;14.50;67.70;;;;;;5074574;28;20455;-75
2024/01/24 06:32:40;;;;;;;1.90;0.70;;;14.40;67.70;;;;;;5074204;28;20433;-75
2024/01/24 06:35:09;;;;;;;1.90;0.70;;;14.50;67.90;;;;;;5074729;28;20774;-75
2024/01/24 06:37:37;;;;;;;1.80;0.67;;;14.40;67.90;;;;;;5073799;28;20437;-76
2024/01/24 06:40:05;;;;;;;2.30;0.87;;;14.50;67.90;;;;;;5074357;28;20440;-75
2024/01/24 06:42:34;;;;;;;2.00;0.80;;;14.50;67.80;;;;;;5086470;28;20888;-75
2024/01/24 06:45:00;;;;;;;1.87;0.87;;;14.50;67.90;;;;;;5094349;28;20463;-74
2024/01/24 06:47:27;;;;;;;1.90;0.80;;;14.50;68.10;;;;;;5074774;28;20539;-75
2024/01/24 06:49:54;;;;;;;2.00;0.90;;;14.50;68.00;;;;;;5074116;28;20838;-76
2024/01/24 06:52:21;;;;;;;2.30;0.80;;;14.50;67.70;;;;;;5077178;28;20678;-75
2024/01/24 06:54:48;;;;;;;2.30;0.87;;;14.50;67.90;;;;;;5089666;28;20519;-73
2024/01/24 06:57:15;;;;;;;1.80;0.60;;;14.50;67.90;;;;;;5091593;28;20522;-73
2024/01/24 06:59:43;;;;;;;2.00;0.67;;;14.50;67.80;;;;;;5073536;28;20536;-73
2024/01/24 07:02:10;;;;;;;2.00;0.80;;;14.50;67.60;;;;;;5073535;28;20851;-73
2024/01/24 07:04:37;;;;;;;1.80;0.60;;;14.40;67.70;;;;;;5073747;28;20552;-73
2024/01/24 07:07:04;;;;;;;1.97;0.90;;;14.40;67.70;;;;;;5073705;28;20858;-72
2024/01/24 07:09:31;;;;;;;2.00;0.80;;;14.40;67.80;;;;;;5073886;28;20511;-73
2024/01/24 07:12:02;;;;;;;1.90;0.90;;;14.40;67.70;;;;;;5074513;28;20439;-73
2024/01/24 07:14:29;;;;;;;1.87;0.70;;;14.50;67.40;;;;;;5070535;28;20435;-74
2024/01/24 07:16:57;;;;;;;1.90;0.60;;;14.50;67.30;;;;;;5073243;28;20834;-73
2024/01/24 07:19:24;;;;;;;2.50;0.80;;;14.40;67.40;;;;;;5072847;28;20833;-75
2024/01/24 07:21:51;;;;;;;1.83;0.80;;;14.50;67.30;;;;;;5093385;28;20468;-75
2024/01/24 07:24:18;;;;;;;2.23;0.80;;;14.50;67.10;;;;;;5078176;28;20512;-76
2024/01/24 07:26:44;;;;;;;1.90;0.70;;;14.40;66.90;;;;;;5072423;28;20987;-75
2024/01/24 07:29:11;;;;;;;1.90;0.80;;;14.40;66.40;;;;;;5072873;28;20523;-75
2024/01/24 07:31:39;;;;;;;2.27;1.10;;;14.40;66.60;;;;;;5072771;28;20443;-76
2024/01/24 07:34:08;;;;;;;2.63;1.07;;;14.50;65.00;;;;;;5072763;28;20475;-76
2024/01/24 07:36:35;;;;;;;2.23;0.80;;;14.50;65.60;;;;;;5072184;28;20979;-75
2024/01/24 07:39:04;;;;;;;2.47;0.83;;;14.50;64.30;;;;;;5071339;28;20513;-75
2024/01/24 07:41:31;;;;;;;2.10;0.70;;;14.50;64.00;;;;;;5073192;28;20428;-75
2024/01/24 07:43:59;;;;;;;2.00;0.90;;;14.50;63.90;;;;;;5076910;28;20477;-75
2024/01/24 07:46:32;;;;;;;2.67;1.03;;;14.50;64.10;;;;;;5074134;28;20467;-75
2024/01/24 07:48:59;;;;;;;1.90;0.53;;;14.50;63.30;;;;;;5072552;28;20499;-75
2024/01/24 07:51:27;;;;;;;2.30;1.00;;;14.50;62.80;;;;;;5072629;28;20523;-74
2024/01/24 07:53:54;;;;;;;2.20;0.70;;;14.60;62.70;;;;;;5072944;28;20471;-76
2024/01/24 07:56:20;;;;;;;2.03;0.60;;;14.60;62.40;;;;;;5082597;28;20503;-75
2024/01/24 07:58:48;;;;;;;2.40;0.80;;;14.60;62.40;;;;;;5092784;28;20526;-75
2024/01/24 08:01:17;;;;;;;3.80;1.10;;;14.60;62.70;;;;;;5080646;28;20440;-75
2024/01/24 08:03:44;;;;;;;2.10;0.90;;;14.60;62.10;;;;;;5075531;28;20485;-75
2024/01/24 08:06:11;;;;;;;2.80;0.90;;;14.60;61.70;;;;;;5072776;28;20424;-74
2024/01/24 08:08:39;;;;;;;2.10;0.80;;;14.60;61.50;;;;;;5052697;28;20432;-75
2024/01/24 08:11:06;;;;;;;2.57;1.10;;;14.70;61.70;;;;;;5071100;28;20450;-75
2024/01/24 08:13:33;;;;;;;1.80;0.60;;;14.70;61.90;;;;;;5071461;28;20472;-74
2024/01/24 08:16:01;;;;;;;2.03;0.70;;;14.70;62.20;;;;;;5073154;28;20554;-75
2024/01/24 08:18:28;;;;;;;1.93;0.70;;;14.70;62.20;;;;;;5073471;28;20769;-75
2024/01/24 08:20:55;;;;;;;2.33;1.20;;;14.80;61.90;;;;;;5072628;28;20918;-74
2024/01/24 08:23:22;;;;;;;3.70;1.23;;;14.80;62.00;;;;;;5072975;28;20433;-75
2024/01/24 08:25:51;;;;;;;1.80;0.60;;;14.70;62.30;;;;;;5073276;28;20806;-75
2024/01/24 08:28:18;;;;;;;2.50;0.93;;;14.80;62.60;;;;;;5073229;28;20834;-75
2024/01/24 08:30:45;;;;;;;3.07;0.90;;;14.80;62.50;;;;;;5072677;28;20523;-75
2024/01/24 08:33:12;;;;;;;2.10;1.10;;;14.90;62.40;;;;;;5072174;28;20530;-75
2024/01/24 08:35:39;;;;;;;3.33;0.70;;;14.90;62.50;;;;;;5072204;28;20476;-75
2024/01/24 08:38:06;;;;;;;2.10;0.80;;;14.90;62.50;;;;;;5072039;28;20475;-75
2024/01/24 08:40:33;;;;;;;2.00;0.83;;;14.90;62.50;;;;;;5072041;28;20436;-74
2024/01/24 08:43:02;;;;;;;2.03;0.90;;;14.90;62.70;;;;;;5072108;28;20479;-75
2024/01/24 08:45:29;;;;;;;2.37;0.90;;;14.90;62.50;;;;;;5072067;28;20862;-75
2024/01/24 08:47:56;;;;;;;2.50;1.10;;;14.90;62.40;;;;;;5071985;28;20468;-75
2024/01/24 08:50:24;;;;;;;1.80;0.70;;;14.90;62.20;;;;;;5072484;28;20514;-75
2024/01/24 08:52:51;;;;;;;2.60;1.10;;;14.90;62.70;;;;;;5072977;28;20437;-76
2024/01/24 08:55:18;;;;;;;2.30;1.00;;;14.90;62.70;;;;;;5072210;28;20440;-75
2024/01/24 08:57:45;;;;;;;3.10;0.77;;;14.90;62.70;;;;;;5072605;28;20520;-75
2024/01/24 09:00:14;;;;;;;2.77;0.80;;;14.90;62.70;;;;;;5072912;28;20516;-75
2024/01/24 09:02:41;;;;;;;1.90;0.93;;;15.00;62.80;;;;;;5072210;28;20519;-74
2024/01/24 09:05:09;;;;;;;2.00;0.80;;;14.90;62.60;;;;;;5072403;28;20908;-75
2024/01/24 09:07:36;;;;;;;2.43;1.20;;;14.90;62.80;;;;;;5072451;28;20430;-75
2024/01/24 09:10:08;;;;;;;1.83;0.67;;;14.90;63.10;;;;;;5074288;28;20526;-75
2024/01/24 09:12:35;;;;;;;1.93;0.70;;;14.90;63.20;;;;;;5076468;28;20448;-75
2024/01/24 09:15:03;;;;;;;1.97;1.00;;;14.90;63.10;;;;;;5076345;28;20762;-75
2024/01/24 09:17:33;;;;;;;2.20;0.73;;;14.90;63.20;;;;;;5076394;28;20954;-75
2024/01/24 09:20:06;;;;;;;2.57;1.10;;;14.90;63.60;;;;;;5076854;28;20437;-75
2024/01/24 09:22:33;;;;;;;2.13;0.73;;;15.00;63.10;;;;;;5076311;28;20430;-75
2024/01/24 09:25:06;;;;;;;1.77;0.60;;;15.10;63.00;;;;;;5076063;28;20874;-75
2024/01/24 09:27:36;;;;;;;2.50;0.83;;;15.10;63.10;;;;;;5075554;28;20520;-74
2024/01/24 09:30:04;;;;;;;1.90;0.83;;;15.10;63.20;;;;;;5075843;28;20437;-75
2024/01/24 09:32:32;;;;;;;2.63;0.80;;;15.10;63.30;;;;;;5075346;28;20517;-76
2024/01/24 09:34:59;;;;;;;9.00;1.00;;;15.20;63.20;;;;;;5075716;28;20476;-75
2024/01/24 09:37:27;;;;;;;3.20;1.40;;;15.20;63.10;;;;;;5075683;28;20887;-75
2024/01/24 09:39:54;;;;;;;1.90;0.70;;;15.20;63.50;;;;;;5075413;28;20501;-75
2024/01/24 09:42:24;;;;;;;3.63;1.20;;;15.30;63.00;;;;;;5076119;28;20426;-75
2024/01/24 09:44:52;;;;;;;1.90;0.70;;;15.30;62.40;;;;;;5075549;28;20465;-75
2024/01/24 09:47:23;;;;;;;1.80;0.80;;;15.40;62.00;;;;;;5075927;28;20475;-75
2024/01/24 09:49:52;;;;;;;2.03;0.80;;;15.30;62.40;;;;;;5075608;28;20425;-75
2024/01/24 09:52:23;;;;;;;1.70;0.60;;;15.40;63.00;;;;;;5075846;28;20888;-75
2024/01/24 09:54:54;;;;;;;2.20;0.77;;;15.40;63.10;;;;;;5075719;28;20429;-75
2024/01/24 09:57:22;;;;;;;2.10;0.87;;;15.50;62.40;;;;;;5075713;28;20508;-75
2024/01/24 09:59:50;;;;;;;2.33;1.00;;;15.50;62.90;;;;;;5075664;28;20524;-76
2024/01/24 10:02:17;;;;;;;2.00;0.90;;;15.50;63.40;;;;;;5075449;28;20830;-75
2024/01/24 10:04:45;;;;;;;2.00;0.70;;;15.50;62.70;;;;;;5075360;28;20891;-75
2024/01/24 10:07:15;;;;;;;2.00;0.70;;;15.70;63.10;;;;;;5074841;28;20462;-75
2024/01/24 10:09:42;;;;;;;1.80;0.83;;;16.00;62.60;;;;;;5075154;28;20487;-75
2024/01/24 10:12:09;;;;;;;2.87;0.90;;;16.30;61.60;;;;;;5074200;28;20829;-75
2024/01/24 10:14:40;;;;;;;1.90;0.60;;;16.50;61.60;;;;;;5074969;28;20521;-75
2024/01/24 10:17:10;;;;;;;2.10;1.00;;;16.60;60.60;;;;;;5074903;28;20936;-75
2024/01/24 10:19:38;;;;;;;1.90;0.70;;;16.60;59.90;;;;;;5075240;28;20786;-75
2024/01/24 10:22:07;;;;;;;1.97;0.60;;;16.60;59.80;;;;;;5074641;28;20435;-75
2024/01/24 10:24:43;;;;;;;2.63;0.80;;;16.60;59.70;;;;;;5074947;28;20474;-76
2024/01/24 10:27:10;;;;;;;2.00;0.70;;;16.80;59.80;;;;;;5074317;28;20458;-75
2024/01/24 10:29:44;;;;;;;3.23;0.80;;;16.90;59.20;;;;;;5074298;28;20443;-75
2024/01/24 10:32:13;;;;;;;3.27;0.80;;;17.00;58.30;;;;;;5074560;28;20427;-75
2024/01/24 10:34:41;;;;;;;2.37;0.77;;;17.20;57.30;;;;;;5073864;28;20526;-75
2024/01/24 10:37:10;;;;;;;2.30;0.70;;;17.20;56.70;;;;;;5074270;28;20506;-75
2024/01/24 10:39:39;;;;;;;3.40;0.80;;;17.10;56.30;;;;;;5073799;28;20833;-75
2024/01/24 10:42:40;;;;;;;1.70;0.50;;;17.10;55.80;;;;;;5073686;28;20544;-76
2024/01/24 10:45:09;;;;;;;1.70;0.70;;;17.20;55.30;;;;;;5074075;28;20491;-73
2024/01/24 10:47:36;;;;;;;2.70;1.10;;;17.20;55.10;;;;;;5073765;28;20434;-75
2024/01/24 10:50:05;;;;;;;1.87;0.60;;;17.10;55.30;;;;;;5074374;28;20881;-75
2024/01/24 10:52:34;;;;;;;2.40;0.70;;;17.20;55.10;;;;;;5074135;28;20435;-75
2024/01/24 10:55:06;;;;;;;2.80;0.90;;;17.30;54.40;;;;;;5074124;28;20501;-74
2024/01/24 10:57:36;;;;;;;7.03;0.90;;;17.80;54.10;;;;;;5074347;28;20463;-75
2024/01/24 11:00:11;;;;;;;2.13;0.70;;;18.30;53.40;;;;;;5073974;28;20719;-75
2024/01/24 11:02:38;;;;;;;3.37;1.00;;;18.90;52.40;;;;;;5074261;28;20767;-75
2024/01/24 11:05:14;;;;;;;2.60;0.97;;;19.30;51.10;;;;;;5073901;28;20567;-75
2024/01/24 11:07:47;;;;;;;1.77;0.53;;;19.70;49.80;;;;;;5074335;28;20485;-76
2024/01/24 11:10:23;;;;;;;2.47;0.80;;;20.20;48.70;;;;;;5073841;28;20467;-75
2024/01/24 11:12:52;;;;;;;2.20;0.70;;;20.40;47.10;;;;;;5074256;28;20507;-75
2024/01/24 11:15:21;;;;;;;2.30;1.00;;;20.30;45.80;;;;;;5073705;28;20446;-75
2024/01/24 11:18:18;;;;;;;2.83;0.60;;;20.10;46.20;;;;;;5073348;28;20857;-75
2024/01/24 11:20:51;;;;;;;1.90;0.70;;;19.90;46.00;;;;;;5073917;28;20470;-76
2024/01/24 11:23:35;;;;;;;2.20;0.93;;;20.10;46.40;;;;;;5073910;28;20485;-75
2024/01/24 11:26:04;;;;;;;2.27;0.70;;;20.10;45.60;;;;;;5073955;28;20529;-76
2024/01/24 11:28:31;;;;;;;2.20;0.63;;;20.00;44.30;;;;;;5072946;28;20439;-75
2024/01/24 11:30:58;;;;;;;3.30;0.70;;;19.80;44.70;;;;;;5073901;28;20436;-75
2024/01/24 11:33:32;;;;;;;2.30;0.70;;;19.70;45.20;;;;;;5072958;28;20468;-75
2024/01/24 11:36:02;;;;;;;2.53;0.60;;;19.60;45.30;;;;;;5073595;28;20423;-75
2024/01/24 11:39:06;;;;;;;1.83;0.70;;;19.40;45.80;;;;;;5073605;28;20458;-75
2024/01/24 11:41:41;;;;;;;1.90;0.70;;;19.50;46.20;;;;;;5073595;28;20774;-75
2024/01/24 11:44:12;;;;;;;1.77;0.60;;;19.80;46.10;;;;;;5073374;28;20923;-75
2024/01/24 11:46:39;;;;;;;2.23;0.60;;;20.20;45.90;;;;;;5072836;28;20490;-76
2024/01/24 11:49:07;;;;;;;1.97;0.87;;;20.30;45.80;;;;;;5073337;28;20471;-75
2024/01/24 11:51:34;;;;;;;1.83;0.63;;;20.50;45.70;;;;;;5073463;28;20527;-75
2024/01/24 11:54:01;;;;;;;2.13;0.60;;;20.70;45.10;;;;;;5073215;28;20470;-75
2024/01/24 11:56:28;;;;;;;3.67;0.70;;;20.90;45.10;;;;;;5073281;28;20471;-76
2024/01/24 11:58:58;;;;;;;2.07;0.70;;;21.00;44.50;;;;;;5073253;28;20474;-75
2024/01/24 12:01:25;;;;;;;1.80;0.50;;;21.10;44.40;;;;;;5073091;28;20443;-75
2024/01/24 12:03:52;;;;;;;2.10;0.60;;;21.30;44.00;;;;;;5073341;28;20519;-75
2024/01/24 12:06:22;;;;;;;2.23;0.80;;;21.60;43.30;;;;;;5073839;28;20506;-75
2024/01/24 12:08:54;;;;;;;2.23;0.80;;;21.80;42.80;;;;;;5073106;28;20442;-75
2024/01/24 12:11:25;;;;;;;3.03;0.77;;;21.90;42.30;;;;;;5069343;28;20434;-74
2024/01/24 12:13:52;;;;;;;2.53;0.73;;;21.80;41.90;;;;;;5072550;28;20808;-75
2024/01/24 12:16:28;;;;;;;1.90;0.60;;;21.70;42.00;;;;;;5072701;28;20793;-75
2024/01/24 12:18:55;;;;;;;2.30;0.73;;;21.70;42.00;;;;;;5072733;28;20435;-75
2024/01/24 12:21:24;;;;;;;2.43;0.80;;;21.70;42.10;;;;;;5070961;28;20929;-75
2024/01/24 12:23:51;;;;;;;1.80;0.70;;;21.50;41.90;;;;;;5072476;28;20471;-75
2024/01/24 12:26:19;;;;;;;3.60;0.67;;;21.20;42.20;;;;;;5077715;28;20502;-75
2024/01/24 12:28:47;;;;;;;2.33;1.00;;;20.90;42.70;;;;;;5089085;28;20463;-75
2024/01/24 12:31:14;;;;;;;2.00;0.70;;;20.50;43.30;;;;;;5056164;28;20523;-75
2024/01/24 12:33:42;;;;;;;3.00;0.63;;;20.30;44.20;;;;;;5072373;28;20436;-86
2024/01/24 12:36:11;;;;;;;2.03;0.70;;;20.20;44.60;;;;;;5071465;28;20995;-74
2024/01/24 12:38:40;;;;;;;2.87;0.97;;;20.10;45.10;;;;;;5070140;28;20429;-75
2024/01/24 12:41:09;;;;;;;2.00;1.07;;;20.00;45.20;;;;;;5072557;28;20436;-75
2024/01/24 12:43:40;;;;;;;2.13;0.70;;;19.90;46.20;;;;;;5073772;28;20459;-74
2024/01/24 12:46:12;;;;;;;2.50;0.77;;;19.90;45.80;;;;;;5076470;28;20460;-74
2024/01/24 12:48:39;;;;;;;2.40;1.03;;;19.90;46.40;;;;;;5086539;28;20950;-75
2024/01/24 12:51:07;;;;;;;2.50;0.60;;;20.00;46.10;;;;;;5096654;28;20820;-75
2024/01/24 12:53:34;;;;;;;2.33;0.70;;;20.10;45.80;;;;;;5096771;28;20526;-75